sensor_id;sensor_type;location;lat;lon;timestamp;pressure;altitude;pressure_sealevel;temperature;humidity
59487;BME280;45298;54.918;73.504;2024-02-26T00:02:18;101637.06;;;-9.39;84.32
59487;BME280;45298;54.918;73.504;2024-02-26T00:04:47;101645.16;;;-9.30;83.71
59487;BME280;45298;54.918;73.504;2024-02-26T00:07:16;101616.88;;;-9.50;84.57
59487;BME280;45298;54.918;73.504;2024-02-26T00:09:45;101628.47;;;-9.40;84.48
59487;BME280;45298;54.918;73.504;2024-02-26T00:12:14;101652.78;;;-9.33;83.89
59487;BME280;45298;54.918;73.504;2024-02-26T00:15:01;101642.06;;;-9.43;84.23
59487;BME280;45298;54.918;73.504;2024-02-26T00:17:30;101640.16;;;-9.47;83.69
59487;BME280;45298;54.918;73.504;2024-02-26T00:19:59;101647.88;;;-9.47;84.15
59487;BME280;45298;54.918;73.504;2024-02-26T00:22:29;101650.28;;;-9.50;83.87
59487;BME280;45298;54.918;73.504;2024-02-26T00:24:57;101639.91;;;-9.53;83.91
59487;BME280;45298;54.918;73.504;2024-02-26T00:27:38;101656.38;;;-9.48;83.54
59487;BME280;45298;54.918;73.504;2024-02-26T00:30:10;101651.84;;;-9.53;84.08
59487;BME280;45298;54.918;73.504;2024-02-26T00:32:40;101668.25;;;-9.50;84.31
59487;BME280;45298;54.918;73.504;2024-02-26T00:35:09;101662.31;;;-9.49;84.21
59487;BME280;45298;54.918;73.504;2024-02-26T00:37:38;101660.50;;;-9.51;84.16
59487;BME280;45298;54.918;73.504;2024-02-26T00:40:07;101653.53;;;-9.54;84.23
59487;BME280;45298;54.918;73.504;2024-02-26T00:42:37;101657.06;;;-9.52;84.17
59487;BME280;45298;54.918;73.504;2024-02-26T00:45:06;101664.78;;;-9.52;84.34
59487;BME280;45298;54.918;73.504;2024-02-26T00:47:34;101658.75;;;-9.52;83.80
59487;BME280;45298;54.918;73.504;2024-02-26T00:50:03;101663.13;;;-9.50;84.19
59487;BME280;45298;54.918;73.504;2024-02-26T00:52:32;101661.31;;;-9.52;84.47
59487;BME280;45298;54.918;73.504;2024-02-26T00:55:03;101669.22;;;-9.48;84.24
59487;BME280;45298;54.918;73.504;2024-02-26T00:57:32;101673.56;;;-9.47;84.63
59487;BME280;45298;54.918;73.504;2024-02-26T01:00:14;101669.91;;;-9.52;84.22
59487;BME280;45298;54.918;73.504;2024-02-26T01:02:55;101675.97;;;-9.50;84.04
59487;BME280;45298;54.918;73.504;2024-02-26T01:05:23;101678.63;;;-9.48;84.22
59487;BME280;45298;54.918;73.504;2024-02-26T01:07:55;101669.16;;;-9.49;83.88
59487;BME280;45298;54.918;73.504;2024-02-26T01:10:24;101669.97;;;-9.50;84.12
59487;BME280;45298;54.918;73.504;2024-02-26T01:12:52;101672.59;;;-9.49;84.03
59487;BME280;45298;54.918;73.504;2024-02-26T01:15:21;101688.97;;;-9.47;84.13
59487;BME280;45298;54.918;73.504;2024-02-26T01:17:52;101687.22;;;-9.48;84.17
59487;BME280;45298;54.918;73.504;2024-02-26T01:20:21;101674.16;;;-9.52;84.61
59487;BME280;45298;54.918;73.504;2024-02-26T01:22:50;101671.66;;;-9.51;84.19
59487;BME280;45298;54.918;73.504;2024-02-26T01:25:19;101680.31;;;-9.49;84.32
59487;BME280;45298;54.918;73.504;2024-02-26T01:27:47;101607.28;;;-9.92;84.14
59487;BME280;45298;54.918;73.504;2024-02-26T01:30:16;101676.78;;;-9.51;83.94
59487;BME280;45298;54.918;73.504;2024-02-26T01:32:45;101680.03;;;-9.55;84.69
59487;BME280;45298;54.918;73.504;2024-02-26T01:35:14;101682.53;;;-9.57;84.21
59487;BME280;45298;54.918;73.504;2024-02-26T01:37:55;101683.13;;;-9.62;83.79
59487;BME280;45298;54.918;73.504;2024-02-26T01:40:28;101676.22;;;-9.63;83.92
59487;BME280;45298;54.918;73.504;2024-02-26T01:42:59;101681.22;;;-9.66;84.10
59487;BME280;45298;54.918;73.504;2024-02-26T01:45:29;101675.28;;;-9.65;84.15
59487;BME280;45298;54.918;73.504;2024-02-26T01:47:58;101664.78;;;-9.70;83.92
59487;BME280;45298;54.918;73.504;2024-02-26T01:50:28;101673.59;;;-9.65;84.72
59487;BME280;45298;54.918;73.504;2024-02-26T01:52:59;101649.03;;;-9.78;83.97
59487;BME280;45298;54.918;73.504;2024-02-26T01:55:29;101686.78;;;-9.57;84.25
59487;BME280;45298;54.918;73.504;2024-02-26T01:57:58;101672.84;;;-9.62;83.96
59487;BME280;45298;54.918;73.504;2024-02-26T02:00:27;101647.25;;;-9.79;84.19
59487;BME280;45298;54.918;73.504;2024-02-26T02:02:56;101675.34;;;-9.64;84.00
59487;BME280;45298;54.918;73.504;2024-02-26T02:05:26;101676.38;;;-9.60;84.10
59487;BME280;45298;54.918;73.504;2024-02-26T02:07:55;101672.84;;;-9.62;84.24
59487;BME280;45298;54.918;73.504;2024-02-26T02:10:26;101655.13;;;-9.76;83.83
59487;BME280;45298;54.918;73.504;2024-02-26T02:12:55;101682.38;;;-9.60;84.53
59487;BME280;45298;54.918;73.504;2024-02-26T02:15:23;101695.44;;;-9.55;84.32
59487;BME280;45298;54.918;73.504;2024-02-26T02:17:52;101694.41;;;-9.59;83.97
59487;BME280;45298;54.918;73.504;2024-02-26T02:20:34;101691.03;;;-9.58;84.23
59487;BME280;45298;54.918;73.504;2024-02-26T02:23:03;101663.88;;;-9.71;84.46
59487;BME280;45298;54.918;73.504;2024-02-26T02:25:34;101681.13;;;-9.50;83.99
59487;BME280;45298;54.918;73.504;2024-02-26T02:28:03;101681.13;;;-9.50;84.58
59487;BME280;45298;54.918;73.504;2024-02-26T02:30:32;101677.72;;;-9.49;84.05
59487;BME280;45298;54.918;73.504;2024-02-26T02:33:04;101682.34;;;-9.42;84.43
59487;BME280;45298;54.918;73.504;2024-02-26T02:35:33;101686.09;;;-9.35;84.40
59487;BME280;45298;54.918;73.504;2024-02-26T02:38:04;101680.22;;;-9.32;84.35
59487;BME280;45298;54.918;73.504;2024-02-26T02:40:33;101677.66;;;-9.32;84.04
59487;BME280;45298;54.918;73.504;2024-02-26T02:43:02;101685.41;;;-9.31;83.92
59487;BME280;45298;54.918;73.504;2024-02-26T02:45:31;101690.72;;;-9.28;84.04
59487;BME280;45298;54.918;73.504;2024-02-26T02:48:00;101702.09;;;-9.22;83.92
59487;BME280;45298;54.918;73.504;2024-02-26T02:50:29;101672.13;;;-9.40;84.38
59487;BME280;45298;54.918;73.504;2024-02-26T02:52:58;101676.81;;;-9.31;83.87
59487;BME280;45298;54.918;73.504;2024-02-26T02:55:27;101705.38;;;-9.25;84.00
59487;BME280;45298;54.918;73.504;2024-02-26T02:57:56;101687.66;;;-9.38;83.99
59487;BME280;45298;54.918;73.504;2024-02-26T03:00:25;101687.38;;;-9.25;83.62
59487;BME280;45298;54.918;73.504;2024-02-26T03:02:54;101684.09;;;-9.22;83.63
59487;BME280;45298;54.918;73.504;2024-02-26T03:05:23;101690.38;;;-9.16;83.63
59487;BME280;45298;54.918;73.504;2024-02-26T03:07:51;101674.69;;;-9.22;83.63
59487;BME280;45298;54.918;73.504;2024-02-26T03:10:21;101669.59;;;-9.20;83.65
59487;BME280;45298;54.918;73.504;2024-02-26T03:13:02;101684.50;;;-9.13;83.95
59487;BME280;45298;54.918;73.504;2024-02-26T03:15:31;101684.16;;;-9.01;83.50
59487;BME280;45298;54.918;73.504;2024-02-26T03:18:01;101683.88;;;-8.88;83.47
59487;BME280;45298;54.918;73.504;2024-02-26T03:20:30;101674.69;;;-8.83;83.25
59487;BME280;45298;54.918;73.504;2024-02-26T03:22:58;101630.03;;;-8.85;82.82
59487;BME280;45298;54.918;73.504;2024-02-26T03:25:27;101634.34;;;-8.84;83.35
59487;BME280;45298;54.918;73.504;2024-02-26T03:27:56;101632.78;;;-8.80;83.02
59487;BME280;45298;54.918;73.504;2024-02-26T03:30:24;101619.72;;;-8.85;83.08
59487;BME280;45298;54.918;73.504;2024-02-26T03:32:54;101630.47;;;-8.74;83.09
59487;BME280;45298;54.918;73.504;2024-02-26T03:35:23;101653.41;;;-8.59;83.40
59487;BME280;45298;54.918;73.504;2024-02-26T03:37:51;101642.50;;;-8.53;82.54
59487;BME280;45298;54.918;73.504;2024-02-26T03:40:20;101641.13;;;-8.43;82.87
59487;BME280;45298;54.918;73.504;2024-02-26T03:42:49;101654.63;;;-8.28;83.00
59487;BME280;45298;54.918;73.504;2024-02-26T03:45:17;101656.66;;;-8.21;82.15
59487;BME280;45298;54.918;73.504;2024-02-26T03:47:46;101649.88;;;-8.18;81.94
59487;BME280;45298;54.918;73.504;2024-02-26T03:50:15;101654.69;;;-8.05;82.24
59487;BME280;45298;54.918;73.504;2024-02-26T03:52:44;101653.50;;;-7.92;82.21
59487;BME280;45298;54.918;73.504;2024-02-26T03:55:25;101655.19;;;-7.70;82.27
59487;BME280;45298;54.918;73.504;2024-02-26T03:57:54;101642.59;;;-7.62;81.73
59487;BME280;45298;54.918;73.504;2024-02-26T04:00:35;101645.47;;;-7.54;81.41
59487;BME280;45298;54.918;73.504;2024-02-26T04:03:05;101649.22;;;-7.46;82.43
59487;BME280;45298;54.918;73.504;2024-02-26T04:05:33;101590.03;;;-7.90;82.08
59487;BME280;45298;54.918;73.504;2024-02-26T04:08:05;101661.31;;;-7.45;82.06
59487;BME280;45298;54.918;73.504;2024-02-26T04:10:35;101672.03;;;-7.34;82.52
59487;BME280;45298;54.918;73.504;2024-02-26T04:13:20;101651.69;;;-7.26;82.62
59487;BME280;45298;54.918;73.504;2024-02-26T04:15:48;101636.03;;;-7.31;81.39
59487;BME280;45298;54.918;73.504;2024-02-26T04:18:17;101638.31;;;-7.16;81.18
59487;BME280;45298;54.918;73.504;2024-02-26T04:20:59;101642.38;;;-6.99;80.66
59487;BME280;45298;54.918;73.504;2024-02-26T04:23:28;101644.16;;;-6.72;81.59
59487;BME280;45298;54.918;73.504;2024-02-26T04:25:57;101637.78;;;-6.57;81.08
59487;BME280;45298;54.918;73.504;2024-02-26T04:28:26;101652.28;;;-6.35;80.02
59487;BME280;45298;54.918;73.504;2024-02-26T04:30:57;101640.66;;;-6.22;81.07
59487;BME280;45298;54.918;73.504;2024-02-26T04:33:26;101629.19;;;-6.03;80.18
59487;BME280;45298;54.918;73.504;2024-02-26T04:35:55;101642.72;;;-5.83;80.29
59487;BME280;45298;54.918;73.504;2024-02-26T04:38:24;101656.09;;;-5.67;79.78
59487;BME280;45298;54.918;73.504;2024-02-26T04:40:52;101644.31;;;-5.59;79.98
59487;BME280;45298;54.918;73.504;2024-02-26T04:43:35;101645.38;;;-5.52;79.84
59487;BME280;45298;54.918;73.504;2024-02-26T04:46:09;101645.38;;;-5.52;79.27
59487;BME280;45298;54.918;73.504;2024-02-26T04:48:38;101655.63;;;-5.54;79.61
59487;BME280;45298;54.918;73.504;2024-02-26T04:51:07;101652.19;;;-5.54;79.19
59487;BME280;45298;54.918;73.504;2024-02-26T04:53:36;101667.19;;;-5.42;79.45
59487;BME280;45298;54.918;73.504;2024-02-26T04:56:05;101647.50;;;-5.37;79.34
59487;BME280;45298;54.918;73.504;2024-02-26T04:58:34;101654.66;;;-5.28;79.05
59487;BME280;45298;54.918;73.504;2024-02-26T05:01:03;101660.22;;;-5.14;78.83
59487;BME280;45298;54.918;73.504;2024-02-26T05:03:32;101642.94;;;-5.16;78.10
59487;BME280;45298;54.918;73.504;2024-02-26T05:06:04;101656.19;;;-5.05;78.36
59487;BME280;45298;54.918;73.504;2024-02-26T05:08:34;101659.78;;;-4.99;77.86
59487;BME280;45298;54.918;73.504;2024-02-26T05:11:04;101673.13;;;-4.86;78.54
59487;BME280;45298;54.918;73.504;2024-02-26T05:13:34;101659.50;;;-4.78;78.09
59487;BME280;45298;54.918;73.504;2024-02-26T05:16:02;101647.56;;;-4.73;77.99
59487;BME280;45298;54.918;73.504;2024-02-26T05:18:31;101663.69;;;-4.50;78.08
59487;BME280;45298;54.918;73.504;2024-02-26T05:21:00;101671.81;;;-4.36;77.73
59487;BME280;45298;54.918;73.504;2024-02-26T05:23:29;101663.19;;;-4.36;77.11
59487;BME280;45298;54.918;73.504;2024-02-26T05:25:58;101665.59;;;-4.44;76.82
59487;BME280;45298;54.918;73.504;2024-02-26T05:28:27;101676.16;;;-4.35;77.40
59487;BME280;45298;54.918;73.504;2024-02-26T05:30:56;101675.41;;;-4.31;77.53
59487;BME280;45298;54.918;73.504;2024-02-26T05:33:25;101669.94;;;-4.08;77.33
59487;BME280;45298;54.918;73.504;2024-02-26T05:35:54;101643.94;;;-4.11;76.93
59487;BME280;45298;54.918;73.504;2024-02-26T05:38:24;101671.13;;;-3.95;76.50
59487;BME280;45298;54.918;73.504;2024-02-26T05:40:53;101660.16;;;-3.83;76.39
59487;BME280;45298;54.918;73.504;2024-02-26T05:43:22;101668.41;;;-3.61;76.64
59487;BME280;45298;54.918;73.504;2024-02-26T05:45:51;101668.94;;;-3.38;76.45
59487;BME280;45298;54.918;73.504;2024-02-26T05:48:20;101654.53;;;-3.22;76.32
59487;BME280;45298;54.918;73.504;2024-02-26T05:50:49;101657.78;;;-2.90;75.75
59487;BME280;45298;54.918;73.504;2024-02-26T05:53:18;101655.34;;;-2.82;76.19
59487;BME280;45298;54.918;73.504;2024-02-26T05:55:47;101679.88;;;-2.67;75.50
59487;BME280;45298;54.918;73.504;2024-02-26T05:58:16;101644.22;;;-2.76;74.88
59487;BME280;45298;54.918;73.504;2024-02-26T06:00:45;101666.19;;;-2.57;75.03
59487;BME280;45298;54.918;73.504;2024-02-26T06:03:14;101656.38;;;-2.72;74.82
59487;BME280;45298;54.918;73.504;2024-02-26T06:05:46;101657.34;;;-2.68;75.54
59487;BME280;45298;54.918;73.504;2024-02-26T06:08:15;101659.25;;;-2.58;76.03
59487;BME280;45298;54.918;73.504;2024-02-26T06:10:44;101664.44;;;-2.58;75.20
59487;BME280;45298;54.918;73.504;2024-02-26T06:13:13;101663.25;;;-2.76;75.33
59487;BME280;45298;54.918;73.504;2024-02-26T06:15:42;101673.84;;;-2.66;75.88
59487;BME280;45298;54.918;73.504;2024-02-26T06:18:23;101676.06;;;-2.37;75.43
59487;BME280;45298;54.918;73.504;2024-02-26T06:20:52;101684.44;;;-2.03;75.28
59487;BME280;45298;54.918;73.504;2024-02-26T06:23:21;101700.50;;;-1.74;74.34
59487;BME280;45298;54.918;73.504;2024-02-26T06:25:50;101711.41;;;-1.43;74.47
59487;BME280;45298;54.918;73.504;2024-02-26T06:28:19;101699.50;;;-1.25;74.25
59487;BME280;45298;54.918;73.504;2024-02-26T06:30:48;101695.31;;;-1.11;73.85
59487;BME280;45298;54.918;73.504;2024-02-26T06:33:17;101674.66;;;-0.97;73.82
59487;BME280;45298;54.918;73.504;2024-02-26T06:35:46;101651.53;;;-0.69;73.05
59487;BME280;45298;54.918;73.504;2024-02-26T06:38:15;101652.56;;;-0.53;72.72
59487;BME280;45298;54.918;73.504;2024-02-26T06:40:46;101670.19;;;-0.27;71.94
59487;BME280;45298;54.918;73.504;2024-02-26T06:43:15;101680.44;;;-0.46;71.98
59487;BME280;45298;54.918;73.504;2024-02-26T06:45:56;101677.94;;;-0.33;72.59
59487;BME280;45298;54.918;73.504;2024-02-26T06:48:37;101667.66;;;-0.16;72.08
59487;BME280;45298;54.918;73.504;2024-02-26T06:51:06;101653.91;;;0.04;71.63
59487;BME280;45298;54.918;73.504;2024-02-26T06:53:35;101640.06;;;0.14;71.61
59487;BME280;45298;54.918;73.504;2024-02-26T06:56:04;101647.31;;;0.62;71.16
59487;BME280;45298;54.918;73.504;2024-02-26T06:58:45;101653.56;;;0.99;70.89
59487;BME280;45298;54.918;73.504;2024-02-26T07:01:14;101647.53;;;1.17;70.60
59487;BME280;45298;54.918;73.504;2024-02-26T07:03:44;101645.66;;;0.88;70.84
59487;BME280;45298;54.918;73.504;2024-02-26T07:06:13;101664.75;;;0.66;71.28
59487;BME280;45298;54.918;73.504;2024-02-26T07:08:43;101655.06;;;0.46;72.22
59487;BME280;45298;54.918;73.504;2024-02-26T07:11:12;101639.34;;;0.35;72.09
59487;BME280;45298;54.918;73.504;2024-02-26T07:13:41;101639.22;;;0.20;72.41
59487;BME280;45298;54.918;73.504;2024-02-26T07:16:11;101644.50;;;0.24;72.02
59487;BME280;45298;54.918;73.504;2024-02-26T07:18:39;101643.56;;;0.16;71.66
59487;BME280;45298;54.918;73.504;2024-02-26T07:21:09;101662.66;;;0.12;72.25
59487;BME280;45298;54.918;73.504;2024-02-26T07:23:38;101661.72;;;0.02;72.02
59487;BME280;45298;54.918;73.504;2024-02-26T07:26:07;101647.72;;;-0.09;72.06
59487;BME280;45298;54.918;73.504;2024-02-26T07:28:36;101645.91;;;-0.17;72.52
59487;BME280;45298;54.918;73.504;2024-02-26T07:31:05;101641.41;;;-0.39;72.66
59487;BME280;45298;54.918;73.504;2024-02-26T07:33:34;101649.19;;;-0.41;72.10
59487;BME280;45298;54.918;73.504;2024-02-26T07:36:03;101640.44;;;-0.46;71.97
59487;BME280;45298;54.918;73.504;2024-02-26T07:38:32;101636.34;;;-0.21;72.17
59487;BME280;45298;54.918;73.504;2024-02-26T07:41:11;101631.03;;;-0.32;70.99
59487;BME280;45298;54.918;73.504;2024-02-26T07:43:53;101619.66;;;-0.38;71.11
59487;BME280;45298;54.918;73.504;2024-02-26T07:46:22;101638.03;;;-0.24;71.68
59487;BME280;45298;54.918;73.504;2024-02-26T07:48:51;101655.41;;;-0.26;71.72
59487;BME280;45298;54.918;73.504;2024-02-26T07:51:20;101670.94;;;-0.39;71.80
59487;BME280;45298;54.918;73.504;2024-02-26T07:53:50;101659.56;;;-0.47;71.28
59487;BME280;45298;54.918;73.504;2024-02-26T07:56:21;101644.69;;;-0.57;71.99
59487;BME280;45298;54.918;73.504;2024-02-26T07:58:50;101639.38;;;-0.68;71.58
59487;BME280;45298;54.918;73.504;2024-02-26T08:01:19;101648.00;;;-0.74;71.77
59487;BME280;45298;54.918;73.504;2024-02-26T08:03:48;101612.28;;;-0.86;72.27
59487;BME280;45298;54.918;73.504;2024-02-26T08:06:17;101624.50;;;-0.80;71.76
59487;BME280;45298;54.918;73.504;2024-02-26T08:08:46;101630.63;;;-0.75;71.67
59487;BME280;45298;54.918;73.504;2024-02-26T08:11:16;101627.91;;;-0.86;70.93
59487;BME280;45298;54.918;73.504;2024-02-26T08:13:46;101632.25;;;-0.85;71.44
59487;BME280;45298;54.918;73.504;2024-02-26T08:16:15;101628.75;;;-0.85;71.77
59487;BME280;45298;54.918;73.504;2024-02-26T08:18:46;101646.09;;;-0.90;71.45
59487;BME280;45298;54.918;73.504;2024-02-26T08:21:14;101648.50;;;-1.06;71.49
59487;BME280;45298;54.918;73.504;2024-02-26T08:23:46;101643.16;;;-1.17;71.21
59487;BME280;45298;54.918;73.504;2024-02-26T08:26:15;101645.13;;;-0.99;71.73
59487;BME280;45298;54.918;73.504;2024-02-26T08:28:43;101645.47;;;-0.66;71.08
59487;BME280;45298;54.918;73.504;2024-02-26T08:31:15;101641.44;;;-0.33;70.01
59487;BME280;45298;54.918;73.504;2024-02-26T08:33:44;101640.81;;;-0.04;70.04
59487;BME280;45298;54.918;73.504;2024-02-26T08:36:13;101650.56;;;0.20;69.93
59487;BME280;45298;54.918;73.504;2024-02-26T08:38:42;101636.63;;;0.18;70.41
59487;BME280;45298;54.918;73.504;2024-02-26T08:41:11;101648.81;;;0.22;70.23
59487;BME280;45298;54.918;73.504;2024-02-26T08:43:41;101649.59;;;0.12;70.15
59487;BME280;45298;54.918;73.504;2024-02-26T08:46:10;101653.03;;;0.02;70.08
59487;BME280;45298;54.918;73.504;2024-02-26T08:48:40;101642.53;;;-0.06;70.15
59487;BME280;45298;54.918;73.504;2024-02-26T08:51:10;101649.59;;;0.12;70.50
59487;BME280;45298;54.918;73.504;2024-02-26T08:53:39;101641.78;;;0.12;69.87
59487;BME280;45298;54.918;73.504;2024-02-26T08:56:11;101632.19;;;0.11;69.47
59487;BME280;45298;54.918;73.504;2024-02-26T08:58:46;101639.09;;;-0.02;70.09
59487;BME280;45298;54.918;73.504;2024-02-26T09:01:17;101645.13;;;-0.08;70.81
59487;BME280;45298;54.918;73.504;2024-02-26T09:03:46;101644.19;;;-0.16;71.05
59487;BME280;45298;54.918;73.504;2024-02-26T09:06:15;101652.00;;;-0.19;70.62
59487;BME280;45298;54.918;73.504;2024-02-26T09:08:44;101657.41;;;0.06;70.64
59487;BME280;45298;54.918;73.504;2024-02-26T09:11:13;101649.66;;;0.17;70.22
59487;BME280;45298;54.918;73.504;2024-02-26T09:13:42;101652.34;;;0.27;70.11
59487;BME280;45298;54.918;73.504;2024-02-26T09:16:11;101633.16;;;0.19;69.89
59487;BME280;45298;54.918;73.504;2024-02-26T09:18:41;101640.13;;;0.23;70.18
59487;BME280;45298;54.918;73.504;2024-02-26T09:21:10;101625.38;;;0.28;70.34
59487;BME280;45298;54.918;73.504;2024-02-26T09:23:39;101622.72;;;0.19;69.30
59487;BME280;45298;54.918;73.504;2024-02-26T09:26:08;101634.84;;;0.14;69.83
59487;BME280;45298;54.918;73.504;2024-02-26T09:28:38;101630.50;;;0.14;70.20
59487;BME280;45298;54.918;73.504;2024-02-26T09:31:08;101633.94;;;0.12;70.02
59487;BME280;45298;54.918;73.504;2024-02-26T09:33:37;101628.69;;;0.03;69.72
59487;BME280;45298;54.918;73.504;2024-02-26T09:36:06;101627.72;;;-0.12;69.96
59487;BME280;45298;54.918;73.504;2024-02-26T09:38:35;101627.66;;;-0.20;70.07
59487;BME280;45298;54.918;73.504;2024-02-26T09:41:23;101634.50;;;-0.33;70.32
59487;BME280;45298;54.918;73.504;2024-02-26T09:43:56;101634.53;;;-0.29;70.62
59487;BME280;45298;54.918;73.504;2024-02-26T09:46:25;101628.50;;;-0.22;70.82
59487;BME280;45298;54.918;73.504;2024-02-26T09:48:54;101635.47;;;-0.17;70.50
59487;BME280;45298;54.918;73.504;2024-02-26T09:51:24;101636.31;;;-0.22;70.39
59487;BME280;45298;54.918;73.504;2024-02-26T09:53:54;101606.59;;;-0.43;70.27
59487;BME280;45298;54.918;73.504;2024-02-26T09:56:25;101623.06;;;-0.47;70.63
59487;BME280;45298;54.918;73.504;2024-02-26T09:58:56;101614.28;;;-0.58;70.89
59487;BME280;45298;54.918;73.504;2024-02-26T10:01:26;101634.25;;;-0.61;70.74
59487;BME280;45298;54.918;73.504;2024-02-26T10:03:57;101640.22;;;-0.69;70.85
59487;BME280;45298;54.918;73.504;2024-02-26T10:06:26;101636.72;;;-0.73;70.99
59487;BME280;45298;54.918;73.504;2024-02-26T10:08:56;101628.81;;;-0.82;70.91
59487;BME280;45298;54.918;73.504;2024-02-26T10:11:30;101610.38;;;-1.02;71.04
59487;BME280;45298;54.918;73.504;2024-02-26T10:14:03;101646.97;;;-0.90;70.97
59487;BME280;45298;54.918;73.504;2024-02-26T10:16:32;101640.00;;;-0.91;71.09
59487;BME280;45298;54.918;73.504;2024-02-26T10:19:02;101616.38;;;-1.08;71.08
59487;BME280;45298;54.918;73.504;2024-02-26T10:21:31;101643.41;;;-0.95;71.02
59487;BME280;45298;54.918;73.504;2024-02-26T10:24:00;101648.63;;;-0.98;70.66
59487;BME280;45298;54.918;73.504;2024-02-26T10:26:29;101637.22;;;-1.05;70.76
59487;BME280;45298;54.918;73.504;2024-02-26T10:28:59;101632.88;;;-1.09;70.84
59487;BME280;45298;54.918;73.504;2024-02-26T10:31:29;101643.28;;;-1.09;71.18
59487;BME280;45298;54.918;73.504;2024-02-26T10:33:58;101622.31;;;-1.18;70.96
59487;BME280;45298;54.918;73.504;2024-02-26T10:36:34;101647.63;;;-1.08;71.49
59487;BME280;45298;54.918;73.504;2024-02-26T10:39:18;101648.50;;;-1.09;70.91
59487;BME280;45298;54.918;73.504;2024-02-26T10:41:47;101630.19;;;-1.15;71.15
59487;BME280;45298;54.918;73.504;2024-02-26T10:44:16;101645.75;;;-1.18;70.45
59487;BME280;45298;54.918;73.504;2024-02-26T10:46:47;101633.38;;;-1.38;70.54
59487;BME280;45298;54.918;73.504;2024-02-26T10:49:19;101614.09;;;-1.53;71.70
59487;BME280;45298;54.918;73.504;2024-02-26T10:51:55;101636.72;;;-1.48;71.26
59487;BME280;45298;54.918;73.504;2024-02-26T10:54:41;101652.28;;;-1.52;71.34
59487;BME280;45298;54.918;73.504;2024-02-26T10:57:15;101651.19;;;-1.66;71.62
59487;BME280;45298;54.918;73.504;2024-02-26T10:59:45;101653.78;;;-1.69;71.35
59487;BME280;45298;54.918;73.504;2024-02-26T11:02:14;101661.44;;;-1.78;71.44
59487;BME280;45298;54.918;73.504;2024-02-26T11:04:44;101657.03;;;-1.83;71.63
59487;BME280;45298;54.918;73.504;2024-02-26T11:07:14;101650.81;;;-1.92;71.50
59487;BME280;45298;54.918;73.504;2024-02-26T11:09:44;101652.44;;;-2.01;71.77
59487;BME280;45298;54.918;73.504;2024-02-26T11:12:15;101664.50;;;-2.04;72.05
59487;BME280;45298;54.918;73.504;2024-02-26T11:14:46;101663.44;;;-2.16;72.13
59487;BME280;45298;54.918;73.504;2024-02-26T11:17:16;101664.19;;;-2.23;71.94
59487;BME280;45298;54.918;73.504;2024-02-26T11:19:48;101667.56;;;-2.30;72.13
59487;BME280;45298;54.918;73.504;2024-02-26T11:22:18;101643.66;;;-2.58;72.28
59487;BME280;45298;54.918;73.504;2024-02-26T11:24:53;101665.41;;;-2.53;72.58
59487;BME280;45298;54.918;73.504;2024-02-26T11:27:38;101660.94;;;-2.60;72.89
59487;BME280;45298;54.918;73.504;2024-02-26T11:30:11;101669.59;;;-2.61;72.12
59487;BME280;45298;54.918;73.504;2024-02-26T11:32:47;101648.47;;;-2.80;72.25
59487;BME280;45298;54.918;73.504;2024-02-26T11:35:17;101662.34;;;-2.78;72.92
59487;BME280;45298;54.918;73.504;2024-02-26T11:37:56;101656.03;;;-2.92;72.33
59487;BME280;45298;54.918;73.504;2024-02-26T11:40:26;101681.09;;;-2.94;73.07
59487;BME280;45298;54.918;73.504;2024-02-26T11:42:56;101659.31;;;-3.01;73.15
59487;BME280;45298;54.918;73.504;2024-02-26T11:48:14;101662.53;;;-3.13;72.55
59487;BME280;45298;54.918;73.504;2024-02-26T11:50:51;101661.56;;;-3.18;73.03
59487;BME280;45298;54.918;73.504;2024-02-26T11:53:31;101664.03;;;-3.24;73.15
59487;BME280;45298;54.918;73.504;2024-02-26T11:59:11;101664.53;;;-3.41;73.42
59487;BME280;45298;54.918;73.504;2024-02-26T12:01:48;101639.03;;;-3.60;73.38
59487;BME280;45298;54.918;73.504;2024-02-26T12:04:22;101676.50;;;-3.47;73.76
59487;BME280;45298;54.918;73.504;2024-02-26T12:06:58;101672.91;;;-3.54;73.62
59487;BME280;45298;54.918;73.504;2024-02-26T12:09:39;101666.00;;;-3.54;73.77
59487;BME280;45298;54.918;73.504;2024-02-26T12:12:10;101678.09;;;-3.54;73.75
59487;BME280;45298;54.918;73.504;2024-02-26T12:14:53;101671.13;;;-3.57;74.13
59487;BME280;45298;54.918;73.504;2024-02-26T12:17:27;101663.28;;;-3.60;73.84
59487;BME280;45298;54.918;73.504;2024-02-26T12:20:10;101669.16;;;-3.67;73.91
59487;BME280;45298;54.918;73.504;2024-02-26T12:22:45;101674.31;;;-3.69;74.05
59487;BME280;45298;54.918;73.504;2024-02-26T12:25:22;101672.50;;;-3.71;73.89
59487;BME280;45298;54.918;73.504;2024-02-26T12:27:53;101672.47;;;-3.73;74.58
59487;BME280;45298;54.918;73.504;2024-02-26T12:30:22;101676.81;;;-3.73;73.63
59487;BME280;45298;54.918;73.504;2024-02-26T12:32:53;101689.78;;;-3.73;73.99
59487;BME280;45298;54.918;73.504;2024-02-26T12:35:29;101680.25;;;-3.74;74.45
59487;BME280;45298;54.918;73.504;2024-02-26T12:38:01;101677.50;;;-3.81;74.90
59487;BME280;45298;54.918;73.504;2024-02-26T12:40:31;101686.13;;;-3.82;74.50
59487;BME280;45298;54.918;73.504;2024-02-26T12:43:03;101701.66;;;-3.83;74.50
59487;BME280;45298;54.918;73.504;2024-02-26T12:45:32;101705.13;;;-3.81;74.52
59487;BME280;45298;54.918;73.504;2024-02-26T12:48:05;101718.09;;;-3.81;75.13
59487;BME280;45298;54.918;73.504;2024-02-26T12:50:33;101707.50;;;-3.90;75.06
59487;BME280;45298;54.918;73.504;2024-02-26T12:53:03;101719.66;;;-3.88;75.13
59487;BME280;45298;54.918;73.504;2024-02-26T12:55:32;101720.41;;;-3.92;74.81
59487;BME280;45298;54.918;73.504;2024-02-26T12:58:03;101724.56;;;-3.99;75.08
59487;BME280;45298;54.918;73.504;2024-02-26T13:00:32;101715.03;;;-4.01;75.06
59487;BME280;45298;54.918;73.504;2024-02-26T13:03:01;101657.94;;;-4.40;75.57
59487;BME280;45298;54.918;73.504;2024-02-26T13:05:30;101711.31;;;-4.11;75.35